sensor_id;sensor_type;location;lat;lon;timestamp;P1;durP1;ratioP1;P2;durP2;ratioP2
15490;SDS011;7847;50.930;4.336;2022-07-23T00:01:17;0.20;;;0.20;;
15490;SDS011;7847;50.930;4.336;2022-07-23T00:03:43;0.20;;;0.20;;
15490;SDS011;7847;50.930;4.336;2022-07-23T00:06:10;0.20;;;0.20;;
15490;SDS011;7847;50.930;4.336;2022-07-23T00:08:36;0.20;;;0.20;;
15490;SDS011;7847;50.930;4.336;2022-07-23T00:11:02;0.20;;;0.20;;
15490;SDS011;7847;50.930;4.336;2022-07-23T00:13:28;0.20;;;0.20;;
15490;SDS011;7847;50.930;4.336;2022-07-23T00:15:54;0.20;;;0.20;;
15490;SDS011;7847;50.930;4.336;2022-07-23T00:18:20;0.20;;;0.20;;
15490;SDS011;7847;50.930;4.336;2022-07-23T00:20:47;0.20;;;0.20;;
15490;SDS011;7847;50.930;4.336;2022-07-23T00:23:13;0.20;;;0.20;;
15490;SDS011;7847;50.930;4.336;2022-07-23T00:25:39;0.20;;;0.20;;
15490;SDS011;7847;50.930;4.336;2022-07-23T00:28:05;0.20;;;0.20;;
15490;SDS011;7847;50.930;4.336;2022-07-23T00:30:31;0.20;;;0.20;;
15490;SDS011;7847;50.930;4.336;2022-07-23T00:32:58;0.20;;;0.20;;
15490;SDS011;7847;50.930;4.336;2022-07-23T00:35:25;0.20;;;0.20;;
15490;SDS011;7847;50.930;4.336;2022-07-23T00:37:52;0.13;;;0.13;;
15490;SDS011;7847;50.930;4.336;2022-07-23T00:40:18;0.20;;;0.20;;
15490;SDS011;7847;50.930;4.336;2022-07-23T00:42:44;0.20;;;0.20;;
15490;SDS011;7847;50.930;4.336;2022-07-23T00:45:11;0.20;;;0.20;;
15490;SDS011;7847;50.930;4.336;2022-07-23T00:47:37;0.20;;;0.20;;
15490;SDS011;7847;50.930;4.336;2022-07-23T00:50:04;0.20;;;0.20;;
15490;SDS011;7847;50.930;4.336;2022-07-23T00:52:30;0.20;;;0.20;;
15490;SDS011;7847;50.930;4.336;2022-07-23T00:54:57;0.20;;;0.20;;
15490;SDS011;7847;50.930;4.336;2022-07-23T00:57:23;0.20;;;0.20;;
15490;SDS011;7847;50.930;4.336;2022-07-23T00:59:49;0.20;;;0.20;;
15490;SDS011;7847;50.930;4.336;2022-07-23T01:02:15;0.20;;;0.20;;
15490;SDS011;7847;50.930;4.336;2022-07-23T01:04:41;0.20;;;0.20;;
15490;SDS011;7847;50.930;4.336;2022-07-23T01:07:07;0.20;;;0.20;;
15490;SDS011;7847;50.930;4.336;2022-07-23T01:09:33;0.20;;;0.20;;
15490;SDS011;7847;50.930;4.336;2022-07-23T01:12:00;0.10;;;0.10;;
15490;SDS011;7847;50.930;4.336;2022-07-23T01:14:26;0.13;;;0.13;;
15490;SDS011;7847;50.930;4.336;2022-07-23T01:16:52;0.20;;;0.20;;
15490;SDS011;7847;50.930;4.336;2022-07-23T01:19:19;0.20;;;0.20;;
15490;SDS011;7847;50.930;4.336;2022-07-23T01:21:48;0.15;;;0.15;;
15490;SDS011;7847;50.930;4.336;2022-07-23T01:24:15;0.20;;;0.20;;
15490;SDS011;7847;50.930;4.336;2022-07-23T01:26:44;0.20;;;0.20;;
15490;SDS011;7847;50.930;4.336;2022-07-23T01:29:10;0.20;;;0.20;;
15490;SDS011;7847;50.930;4.336;2022-07-23T01:31:36;0.20;;;0.20;;
15490;SDS011;7847;50.930;4.336;2022-07-23T01:34:03;0.20;;;0.20;;
15490;SDS011;7847;50.930;4.336;2022-07-23T01:36:29;0.20;;;0.20;;
15490;SDS011;7847;50.930;4.336;2022-07-23T01:38:56;0.20;;;0.20;;
15490;SDS011;7847;50.930;4.336;2022-07-23T01:41:22;0.20;;;0.20;;
15490;SDS011;7847;50.930;4.336;2022-07-23T01:43:48;0.17;;;0.17;;
15490;SDS011;7847;50.930;4.336;2022-07-23T01:46:14;0.20;;;0.20;;
15490;SDS011;7847;50.930;4.336;2022-07-23T01:48:40;0.20;;;0.20;;
15490;SDS011;7847;50.930;4.336;2022-07-23T01:51:06;0.20;;;0.20;;
15490;SDS011;7847;50.930;4.336;2022-07-23T01:53:32;0.20;;;0.20;;
15490;SDS011;7847;50.930;4.336;2022-07-23T01:55:58;0.20;;;0.20;;
15490;SDS011;7847;50.930;4.336;2022-07-23T01:58:25;0.20;;;0.20;;
15490;SDS011;7847;50.930;4.336;2022-07-23T02:00:51;0.10;;;0.10;;
15490;SDS011;7847;50.930;4.336;2022-07-23T02:03:17;0.20;;;0.20;;
15490;SDS011;7847;50.930;4.336;2022-07-23T02:05:43;0.20;;;0.20;;
15490;SDS011;7847;50.930;4.336;2022-07-23T02:08:09;0.20;;;0.20;;
15490;SDS011;7847;50.930;4.336;2022-07-23T02:10:35;0.20;;;0.20;;
15490;SDS011;7847;50.930;4.336;2022-07-23T02:13:01;0.20;;;0.20;;
15490;SDS011;7847;50.930;4.336;2022-07-23T02:15:27;0.20;;;0.20;;
15490;SDS011;7847;50.930;4.336;2022-07-23T02:17:54;0.20;;;0.20;;
15490;SDS011;7847;50.930;4.336;2022-07-23T02:20:20;0.20;;;0.20;;
15490;SDS011;7847;50.930;4.336;2022-07-23T02:22:47;0.20;;;0.20;;
15490;SDS011;7847;50.930;4.336;2022-07-23T02:25:13;0.10;;;0.10;;
15490;SDS011;7847;50.930;4.336;2022-07-23T02:27:39;0.20;;;0.20;;
15490;SDS011;7847;50.930;4.336;2022-07-23T02:30:05;0.20;;;0.20;;
15490;SDS011;7847;50.930;4.336;2022-07-23T02:32:32;0.20;;;0.20;;
15490;SDS011;7847;50.930;4.336;2022-07-23T02:34:58;0.20;;;0.20;;
15490;SDS011;7847;50.930;4.336;2022-07-23T02:37:24;0.20;;;0.20;;
15490;SDS011;7847;50.930;4.336;2022-07-23T02:39:50;0.20;;;0.20;;
15490;SDS011;7847;50.930;4.336;2022-07-23T02:42:16;0.20;;;0.20;;
15490;SDS011;7847;50.930;4.336;2022-07-23T02:44:42;0.20;;;0.20;;
15490;SDS011;7847;50.930;4.336;2022-07-23T02:47:09;0.20;;;0.20;;
15490;SDS011;7847;50.930;4.336;2022-07-23T02:49:35;0.20;;;0.20;;
15490;SDS011;7847;50.930;4.336;2022-07-23T02:52:01;0.20;;;0.20;;
15490;SDS011;7847;50.930;4.336;2022-07-23T02:54:27;0.20;;;0.20;;
15490;SDS011;7847;50.930;4.336;2022-07-23T02:56:53;0.17;;;0.17;;
15490;SDS011;7847;50.930;4.336;2022-07-23T02:59:19;0.20;;;0.20;;
15490;SDS011;7847;50.930;4.336;2022-07-23T03:01:45;0.20;;;0.20;;
15490;SDS011;7847;50.930;4.336;2022-07-23T03:04:11;0.20;;;0.20;;
15490;SDS011;7847;50.930;4.336;2022-07-23T03:06:38;0.20;;;0.20;;
15490;SDS011;7847;50.930;4.336;2022-07-23T03:09:04;0.20;;;0.20;;
15490;SDS011;7847;50.930;4.336;2022-07-23T03:11:31;0.20;;;0.20;;
15490;SDS011;7847;50.930;4.336;2022-07-23T03:13:57;0.20;;;0.20;;
15490;SDS011;7847;50.930;4.336;2022-07-23T03:16:23;0.20;;;0.20;;
15490;SDS011;7847;50.930;4.336;2022-07-23T03:18:49;0.20;;;0.20;;
15490;SDS011;7847;50.930;4.336;2022-07-23T03:21:15;0.20;;;0.20;;
15490;SDS011;7847;50.930;4.336;2022-07-23T03:23:41;0.20;;;0.20;;
15490;SDS011;7847;50.930;4.336;2022-07-23T03:26:07;0.20;;;0.20;;
15490;SDS011;7847;50.930;4.336;2022-07-23T03:28:34;0.20;;;0.20;;
15490;SDS011;7847;50.930;4.336;2022-07-23T03:31:00;0.20;;;0.20;;
15490;SDS011;7847;50.930;4.336;2022-07-23T03:33:26;0.20;;;0.20;;
15490;SDS011;7847;50.930;4.336;2022-07-23T03:35:52;0.20;;;0.20;;
15490;SDS011;7847;50.930;4.336;2022-07-23T03:38:18;0.20;;;0.20;;
15490;SDS011;7847;50.930;4.336;2022-07-23T03:40:44;0.20;;;0.20;;
15490;SDS011;7847;50.930;4.336;2022-07-23T03:43:10;0.20;;;0.20;;
15490;SDS011;7847;50.930;4.336;2022-07-23T03:45:36;0.20;;;0.20;;
15490;SDS011;7847;50.930;4.336;2022-07-23T03:48:02;0.20;;;0.20;;
15490;SDS011;7847;50.930;4.336;2022-07-23T03:50:28;0.20;;;0.20;;
15490;SDS011;7847;50.930;4.336;2022-07-23T03:52:54;0.20;;;0.20;;
15490;SDS011;7847;50.930;4.336;2022-07-23T03:55:20;0.20;;;0.20;;
15490;SDS011;7847;50.930;4.336;2022-07-23T03:57:46;0.20;;;0.20;;
15490;SDS011;7847;50.930;4.336;2022-07-23T04:00:13;0.20;;;0.20;;
15490;SDS011;7847;50.930;4.336;2022-07-23T04:02:39;0.20;;;0.20;;
15490;SDS011;7847;50.930;4.336;2022-07-23T04:05:05;0.20;;;0.20;;
15490;SDS011;7847;50.930;4.336;2022-07-23T04:07:32;0.20;;;0.20;;
15490;SDS011;7847;50.930;4.336;2022-07-23T04:09:58;0.20;;;0.20;;
15490;SDS011;7847;50.930;4.336;2022-07-23T04:12:24;0.20;;;0.20;;
15490;SDS011;7847;50.930;4.336;2022-07-23T04:14:50;0.20;;;0.20;;
15490;SDS011;7847;50.930;4.336;2022-07-23T04:17:16;0.20;;;0.20;;
15490;SDS011;7847;50.930;4.336;2022-07-23T04:19:42;0.20;;;0.20;;
15490;SDS011;7847;50.930;4.336;2022-07-23T04:22:09;0.20;;;0.20;;
15490;SDS011;7847;50.930;4.336;2022-07-23T04:24:35;0.20;;;0.20;;
15490;SDS011;7847;50.930;4.336;2022-07-23T04:27:02;0.20;;;0.20;;
15490;SDS011;7847;50.930;4.336;2022-07-23T04:29:28;0.20;;;0.20;;
15490;SDS011;7847;50.930;4.336;2022-07-23T04:31:54;0.20;;;0.20;;
15490;SDS011;7847;50.930;4.336;2022-07-23T04:34:20;0.20;;;0.20;;
15490;SDS011;7847;50.930;4.336;2022-07-23T04:36:47;0.20;;;0.20;;
15490;SDS011;7847;50.930;4.336;2022-07-23T04:39:13;0.20;;;0.20;;
15490;SDS011;7847;50.930;4.336;2022-07-23T04:41:39;0.10;;;0.10;;
15490;SDS011;7847;50.930;4.336;2022-07-23T04:44:05;0.20;;;0.20;;
15490;SDS011;7847;50.930;4.336;2022-07-23T04:46:31;0.20;;;0.20;;
15490;SDS011;7847;50.930;4.336;2022-07-23T04:48:57;0.20;;;0.20;;
15490;SDS011;7847;50.930;4.336;2022-07-23T04:51:23;0.20;;;0.20;;
15490;SDS011;7847;50.930;4.336;2022-07-23T04:53:49;0.20;;;0.20;;
15490;SDS011;7847;50.930;4.336;2022-07-23T04:56:16;0.20;;;0.20;;
15490;SDS011;7847;50.930;4.336;2022-07-23T04:58:42;0.20;;;0.20;;
15490;SDS011;7847;50.930;4.336;2022-07-23T05:01:08;0.20;;;0.20;;
15490;SDS011;7847;50.930;4.336;2022-07-23T05:03:34;0.20;;;0.20;;
15490;SDS011;7847;50.930;4.336;2022-07-23T05:06:00;0.10;;;0.10;;
15490;SDS011;7847;50.930;4.336;2022-07-23T05:08:27;0.20;;;0.20;;
15490;SDS011;7847;50.930;4.336;2022-07-23T05:10:54;0.15;;;0.15;;
15490;SDS011;7847;50.930;4.336;2022-07-23T05:13:20;0.20;;;0.20;;
15490;SDS011;7847;50.930;4.336;2022-07-23T05:15:46;0.20;;;0.20;;
15490;SDS011;7847;50.930;4.336;2022-07-23T05:18:12;0.20;;;0.20;;
15490;SDS011;7847;50.930;4.336;2022-07-23T05:20:38;0.10;;;0.10;;
15490;SDS011;7847;50.930;4.336;2022-07-23T05:23:04;0.10;;;0.10;;
15490;SDS011;7847;50.930;4.336;2022-07-23T05:25:30;0.20;;;0.20;;
15490;SDS011;7847;50.930;4.336;2022-07-23T05:27:56;0.20;;;0.20;;
15490;SDS011;7847;50.930;4.336;2022-07-23T05:30:23;0.10;;;0.10;;
15490;SDS011;7847;50.930;4.336;2022-07-23T05:32:49;0.20;;;0.20;;
15490;SDS011;7847;50.930;4.336;2022-07-23T05:35:15;0.20;;;0.20;;
15490;SDS011;7847;50.930;4.336;2022-07-23T05:37:41;0.10;;;0.10;;
15490;SDS011;7847;50.930;4.336;2022-07-23T05:40:08;0.20;;;0.20;;
15490;SDS011;7847;50.930;4.336;2022-07-23T05:42:35;0.20;;;0.20;;
15490;SDS011;7847;50.930;4.336;2022-07-23T05:45:01;0.10;;;0.10;;
15490;SDS011;7847;50.930;4.336;2022-07-23T05:47:28;0.10;;;0.10;;
15490;SDS011;7847;50.930;4.336;2022-07-23T05:49:54;0.20;;;0.20;;
15490;SDS011;7847;50.930;4.336;2022-07-23T05:52:20;0.10;;;0.10;;
15490;SDS011;7847;50.930;4.336;2022-07-23T05:54:46;0.10;;;0.10;;
15490;SDS011;7847;50.930;4.336;2022-07-23T05:57:12;0.10;;;0.10;;
15490;SDS011;7847;50.930;4.336;2022-07-23T05:59:38;0.10;;;0.10;;
15490;SDS011;7847;50.930;4.336;2022-07-23T06:02:04;0.10;;;0.10;;
15490;SDS011;7847;50.930;4.336;2022-07-23T06:04:30;0.20;;;0.20;;
15490;SDS011;7847;50.930;4.336;2022-07-23T06:06:56;0.10;;;0.10;;
15490;SDS011;7847;50.930;4.336;2022-07-23T06:09:22;0.10;;;0.10;;
15490;SDS011;7847;50.930;4.336;2022-07-23T06:11:48;0.10;;;0.10;;
15490;SDS011;7847;50.930;4.336;2022-07-23T06:14:14;0.10;;;0.10;;
15490;SDS011;7847;50.930;4.336;2022-07-23T06:16:40;0.10;;;0.10;;
15490;SDS011;7847;50.930;4.336;2022-07-23T06:19:06;0.10;;;0.10;;
15490;SDS011;7847;50.930;4.336;2022-07-23T06:21:32;0.10;;;0.10;;
15490;SDS011;7847;50.930;4.336;2022-07-23T06:23:59;0.10;;;0.10;;
15490;SDS011;7847;50.930;4.336;2022-07-23T06:26:25;0.17;;;0.17;;
15490;SDS011;7847;50.930;4.336;2022-07-23T06:28:51;0.10;;;0.10;;
15490;SDS011;7847;50.930;4.336;2022-07-23T06:31:17;0.10;;;0.10;;
15490;SDS011;7847;50.930;4.336;2022-07-23T06:33:43;0.20;;;0.20;;
15490;SDS011;7847;50.930;4.336;2022-07-23T06:36:09;0.10;;;0.10;;
15490;SDS011;7847;50.930;4.336;2022-07-23T06:38:35;0.10;;;0.10;;
15490;SDS011;7847;50.930;4.336;2022-07-23T06:41:01;0.20;;;0.20;;
15490;SDS011;7847;50.930;4.336;2022-07-23T06:43:28;0.13;;;0.13;;
15490;SDS011;7847;50.930;4.336;2022-07-23T06:45:56;0.20;;;0.20;;
15490;SDS011;7847;50.930;4.336;2022-07-23T06:48:22;0.10;;;0.10;;
15490;SDS011;7847;50.930;4.336;2022-07-23T06:50:48;0.10;;;0.10;;
15490;SDS011;7847;50.930;4.336;2022-07-23T06:53:14;0.10;;;0.10;;
15490;SDS011;7847;50.930;4.336;2022-07-23T06:55:40;0.10;;;0.10;;
15490;SDS011;7847;50.930;4.336;2022-07-23T06:58:06;0.10;;;0.10;;
15490;SDS011;7847;50.930;4.336;2022-07-23T07:00:34;0.10;;;0.10;;
15490;SDS011;7847;50.930;4.336;2022-07-23T07:03:00;0.10;;;0.10;;
15490;SDS011;7847;50.930;4.336;2022-07-23T07:05:26;0.10;;;0.10;;
15490;SDS011;7847;50.930;4.336;2022-07-23T07:07:52;0.10;;;0.10;;
15490;SDS011;7847;50.930;4.336;2022-07-23T07:10:18;0.10;;;0.10;;
15490;SDS011;7847;50.930;4.336;2022-07-23T07:12:44;0.10;;;0.10;;
15490;SDS011;7847;50.930;4.336;2022-07-23T07:15:10;0.10;;;0.10;;
15490;SDS011;7847;50.930;4.336;2022-07-23T07:17:37;0.10;;;0.10;;
15490;SDS011;7847;50.930;4.336;2022-07-23T07:20:03;0.10;;;0.10;;
15490;SDS011;7847;50.930;4.336;2022-07-23T07:22:29;0.08;;;0.08;;
15490;SDS011;7847;50.930;4.336;2022-07-23T07:24:55;0.10;;;0.10;;
15490;SDS011;7847;50.930;4.336;2022-07-23T07:27:21;0.10;;;0.10;;
15490;SDS011;7847;50.930;4.336;2022-07-23T07:29:48;0.10;;;0.10;;
15490;SDS011;7847;50.930;4.336;2022-07-23T07:32:14;0.10;;;0.10;;
15490;SDS011;7847;50.930;4.336;2022-07-23T07:34:40;0.00;;;0.00;;
15490;SDS011;7847;50.930;4.336;2022-07-23T07:37:07;0.10;;;0.10;;
15490;SDS011;7847;50.930;4.336;2022-07-23T07:39:33;0.10;;;0.10;;
15490;SDS011;7847;50.930;4.336;2022-07-23T07:41:59;0.10;;;0.10;;
15490;SDS011;7847;50.930;4.336;2022-07-23T07:44:25;0.10;;;0.10;;
15490;SDS011;7847;50.930;4.336;2022-07-23T07:46:51;0.10;;;0.10;;
15490;SDS011;7847;50.930;4.336;2022-07-23T07:49:18;0.00;;;0.00;;
15490;SDS011;7847;50.930;4.336;2022-07-23T07:51:44;0.00;;;0.00;;
15490;SDS011;7847;50.930;4.336;2022-07-23T07:54:11;0.00;;;0.00;;
15490;SDS011;7847;50.930;4.336;2022-07-23T07:56:37;0.10;;;0.10;;
15490;SDS011;7847;50.930;4.336;2022-07-23T07:59:03;0.10;;;0.10;;
15490;SDS011;7847;50.930;4.336;2022-07-23T08:01:29;0.10;;;0.10;;
15490;SDS011;7847;50.930;4.336;2022-07-23T08:03:55;0.10;;;0.10;;
15490;SDS011;7847;50.930;4.336;2022-07-23T08:06:21;0.00;;;0.00;;
15490;SDS011;7847;50.930;4.336;2022-07-23T08:08:48;0.00;;;0.00;;
15490;SDS011;7847;50.930;4.336;2022-07-23T08:11:14;0.10;;;0.10;;
15490;SDS011;7847;50.930;4.336;2022-07-23T08:13:40;0.10;;;0.10;;
15490;SDS011;7847;50.930;4.336;2022-07-23T08:16:06;0.10;;;0.10;;
15490;SDS011;7847;50.930;4.336;2022-07-23T08:18:32;0.10;;;0.10;;
15490;SDS011;7847;50.930;4.336;2022-07-23T08:20:58;0.10;;;0.10;;
15490;SDS011;7847;50.930;4.336;2022-07-23T08:23:24;0.10;;;0.10;;
15490;SDS011;7847;50.930;4.336;2022-07-23T08:25:50;0.10;;;0.10;;
15490;SDS011;7847;50.930;4.336;2022-07-23T08:28:16;0.10;;;0.10;;
15490;SDS011;7847;50.930;4.336;2022-07-23T08:30:43;0.08;;;0.08;;
15490;SDS011;7847;50.930;4.336;2022-07-23T08:33:11;0.00;;;0.00;;
15490;SDS011;7847;50.930;4.336;2022-07-23T08:35:39;0.00;;;0.00;;
15490;SDS011;7847;50.930;4.336;2022-07-23T08:38:09;0.10;;;0.10;;
15490;SDS011;7847;50.930;4.336;2022-07-23T08:40:39;0.10;;;0.10;;
15490;SDS011;7847;50.930;4.336;2022-07-23T08:43:06;0.10;;;0.10;;
15490;SDS011;7847;50.930;4.336;2022-07-23T08:45:35;0.00;;;0.00;;
15490;SDS011;7847;50.930;4.336;2022-07-23T08:48:01;0.00;;;0.00;;
15490;SDS011;7847;50.930;4.336;2022-07-23T08:50:29;0.10;;;0.10;;
15490;SDS011;7847;50.930;4.336;2022-07-23T08:52:55;0.00;;;0.00;;
15490;SDS011;7847;50.930;4.336;2022-07-23T08:55:22;0.00;;;0.00;;
15490;SDS011;7847;50.930;4.336;2022-07-23T08:57:50;0.05;;;0.05;;
15490;SDS011;7847;50.930;4.336;2022-07-23T09:00:16;0.00;;;0.00;;
15490;SDS011;7847;50.930;4.336;2022-07-23T09:02:43;0.00;;;0.00;;
15490;SDS011;7847;50.930;4.336;2022-07-23T09:05:09;0.10;;;0.10;;
15490;SDS011;7847;50.930;4.336;2022-07-23T09:07:36;0.10;;;0.10;;
15490;SDS011;7847;50.930;4.336;2022-07-23T09:10:06;0.10;;;0.10;;
15490;SDS011;7847;50.930;4.336;2022-07-23T09:12:33;0.00;;;0.00;;
15490;SDS011;7847;50.930;4.336;2022-07-23T09:15:08;0.00;;;0.00;;
15490;SDS011;7847;50.930;4.336;2022-07-23T09:17:39;0.10;;;0.10;;
15490;SDS011;7847;50.930;4.336;2022-07-23T09:20:12;0.00;;;0.00;;
15490;SDS011;7847;50.930;4.336;2022-07-23T09:22:40;0.10;;;0.10;;
15490;SDS011;7847;50.930;4.336;2022-07-23T09:25:11;0.10;;;0.10;;
15490;SDS011;7847;50.930;4.336;2022-07-23T09:27:55;0.00;;;0.00;;
15490;SDS011;7847;50.930;4.336;2022-07-23T09:30:25;0.10;;;0.10;;
15490;SDS011;7847;50.930;4.336;2022-07-23T09:33:08;0.10;;;0.10;;
15490;SDS011;7847;50.930;4.336;2022-07-23T09:35:45;0.08;;;0.08;;
15490;SDS011;7847;50.930;4.336;2022-07-23T09:38:11;0.10;;;0.10;;
15490;SDS011;7847;50.930;4.336;2022-07-23T09:40:38;0.00;;;0.00;;
15490;SDS011;7847;50.930;4.336;2022-07-23T09:43:04;0.00;;;0.00;;
15490;SDS011;7847;50.930;4.336;2022-07-23T09:45:30;0.00;;;0.00;;
15490;SDS011;7847;50.930;4.336;2022-07-23T09:48:12;0.00;;;0.00;;
15490;SDS011;7847;50.930;4.336;2022-07-23T09:50:39;0.00;;;0.00;;
15490;SDS011;7847;50.930;4.336;2022-07-23T09:53:05;0.00;;;0.00;;
15490;SDS011;7847;50.930;4.336;2022-07-23T09:55:32;0.00;;;0.00;;
15490;SDS011;7847;50.930;4.336;2022-07-23T09:58:02;0.00;;;0.00;;
15490;SDS011;7847;50.930;4.336;2022-07-23T10:00:29;0.00;;;0.00;;
15490;SDS011;7847;50.930;4.336;2022-07-23T10:02:55;0.00;;;0.00;;
15490;SDS011;7847;50.930;4.336;2022-07-23T10:05:21;0.00;;;0.00;;
15490;SDS011;7847;50.930;4.336;2022-07-23T10:07:49;0.00;;;0.00;;
15490;SDS011;7847;50.930;4.336;2022-07-23T10:10:16;0.00;;;0.00;;
15490;SDS011;7847;50.930;4.336;2022-07-23T10:12:43;0.00;;;0.00;;
15490;SDS011;7847;50.930;4.336;2022-07-23T10:15:09;0.00;;;0.00;;
15490;SDS011;7847;50.930;4.336;2022-07-23T10:17:35;0.00;;;0.00;;
15490;SDS011;7847;50.930;4.336;2022-07-23T10:20:02;0.00;;;0.00;;
15490;SDS011;7847;50.930;4.336;2022-07-23T10:22:31;0.00;;;0.00;;
15490;SDS011;7847;50.930;4.336;2022-07-23T10:35:48;0.00;;;0.00;;
15490;SDS011;7847;50.930;4.336;2022-07-23T10:38:21;0.00;;;0.00;;
15490;SDS011;7847;50.930;4.336;2022-07-23T10:40:53;0.00;;;0.00;;
15490;SDS011;7847;50.930;4.336;2022-07-23T10:43:20;0.00;;;0.00;;
15490;SDS011;7847;50.930;4.336;2022-07-23T10:45:46;0.00;;;0.00;;
15490;SDS011;7847;50.930;4.336;2022-07-23T10:50:41;0.00;;;0.00;;
15490;SDS011;7847;50.930;4.336;2022-07-23T10:53:17;0.00;;;0.00;;
15490;SDS011;7847;50.930;4.336;2022-07-23T10:55:48;0.00;;;0.00;;
15490;SDS011;7847;50.930;4.336;2022-07-23T10:58:56;0.00;;;0.00;;
15490;SDS011;7847;50.930;4.336;2022-07-23T11:01:03;0.00;;;0.00;;
15490;SDS011;7847;50.930;4.336;2022-07-23T11:03:56;0.00;;;0.00;;
15490;SDS011;7847;50.930;4.336;2022-07-23T11:06:23;0.00;;;0.00;;
15490;SDS011;7847;50.930;4.336;2022-07-23T11:09:05;0.00;;;0.00;;
15490;SDS011;7847;50.930;4.336;2022-07-23T11:11:35;0.00;;;0.00;;
15490;SDS011;7847;50.930;4.336;2022-07-23T11:14:01;0.00;;;0.00;;
15490;SDS011;7847;50.930;4.336;2022-07-23T11:16:27;0.00;;;0.00;;
15490;SDS011;7847;50.930;4.336;2022-07-23T11:18:54;0.00;;;0.00;;
15490;SDS011;7847;50.930;4.336;2022-07-23T11:34:24;0.00;;;0.00;;
15490;SDS011;7847;50.930;4.336;2022-07-23T11:36:50;0.00;;;0.00;;
15490;SDS011;7847;50.930;4.336;2022-07-23T11:39:16;0.00;;;0.00;;
15490;SDS011;7847;50.930;4.336;2022-07-23T11:41:43;0.00;;;0.00;;
15490;SDS011;7847;50.930;4.336;2022-07-23T11:44:29;0.00;;;0.00;;
15490;SDS011;7847;50.930;4.336;2022-07-23T11:46:59;0.00;;;0.00;;
15490;SDS011;7847;50.930;4.336;2022-07-23T11:49:26;0.00;;;0.00;;
15490;SDS011;7847;50.930;4.336;2022-07-23T11:52:02;0.00;;;0.00;;
15490;SDS011;7847;50.930;4.336;2022-07-23T11:54:29;0.00;;;0.00;;
15490;SDS011;7847;50.930;4.336;2022-07-23T11:56:56;0.00;;;0.00;;
15490;SDS011;7847;50.930;4.336;2022-07-23T11:59:23;0.00;;;0.00;;
15490;SDS011;7847;50.930;4.336;2022-07-23T12:01:57;0.00;;;0.00;;
15490;SDS011;7847;50.930;4.336;2022-07-23T12:04:24;0.00;;;0.00;;
15490;SDS011;7847;50.930;4.336;2022-07-23T12:06:50;0.00;;;0.00;;
15490;SDS011;7847;50.930;4.336;2022-07-23T12:09:16;0.00;;;0.00;;
15490;SDS011;7847;50.930;4.336;2022-07-23T12:11:58;0.00;;;0.00;;
15490;SDS011;7847;50.930;4.336;2022-07-23T12:14:24;0.00;;;0.00;;
15490;SDS011;7847;50.930;4.336;2022-07-23T12:17:09;0.00;;;0.00;;
15490;SDS011;7847;50.930;4.336;2022-07-23T12:19:35;0.00;;;0.00;;
15490;SDS011;7847;50.930;4.336;2022-07-23T12:22:02;0.00;;;0.00;;
15490;SDS011;7847;50.930;4.336;2022-07-23T12:24:28;0.00;;;0.00;;
15490;SDS011;7847;50.930;4.336;2022-07-23T12:27:10;0.00;;;0.00;;
15490;SDS011;7847;50.930;4.336;2022-07-23T12:29:36;0.00;;;0.00;;
15490;SDS011;7847;50.930;4.336;2022-07-23T12:32:15;0.00;;;0.00;;
15490;SDS011;7847;50.930;4.336;2022-07-23T12:34:42;0.00;;;0.00;;
15490;SDS011;7847;50.930;4.336;2022-07-23T12:37:08;0.00;;;0.00;;
15490;SDS011;7847;50.930;4.336;2022-07-23T12:39:34;0.00;;;0.00;;
15490;SDS011;7847;50.930;4.336;2022-07-23T12:42:00;0.00;;;0.00;;
15490;SDS011;7847;50.930;4.336;2022-07-23T12:44:26;0.00;;;0.00;;
15490;SDS011;7847;50.930;4.336;2022-07-23T12:46:52;0.00;;;0.00;;
15490;SDS011;7847;50.930;4.336;2022-07-23T12:49:28;0.00;;;0.00;;
15490;SDS011;7847;50.930;4.336;2022-07-23T12:51:54;0.00;;;0.00;;
15490;SDS011;7847;50.930;4.336;2022-07-23T12:54:26;0.00;;;0.00;;
15490;SDS011;7847;50.930;4.336;2022-07-23T12:56:53;0.00;;;0.00;;
15490;SDS011;7847;50.930;4.336;2022-07-23T12:59:19;0.00;;;0.00;;
15490;SDS011;7847;50.930;4.336;2022-07-23T13:01:53;0.00;;;0.00;;
15490;SDS011;7847;50.930;4.336;2022-07-23T13:04:20;0.00;;;0.00;;
15490;SDS011;7847;50.930;4.336;2022-07-23T13:06:48;0.00;;;0.00;;
15490;SDS011;7847;50.930;4.336;2022-07-23T13:09:16;0.00;;;0.00;;
15490;SDS011;7847;50.930;4.336;2022-07-23T13:11:43;0.00;;;0.00;;
15490;SDS011;7847;50.930;4.336;2022-07-23T13:14:10;0.00;;;0.00;;
15490;SDS011;7847;50.930;4.336;2022-07-23T13:16:37;0.00;;;0.00;;
15490;SDS011;7847;50.930;4.336;2022-07-23T13:19:03;0.00;;;0.00;;
15490;SDS011;7847;50.930;4.336;2022-07-23T13:21:29;0.00;;;0.00;;
15490;SDS011;7847;50.930;4.336;2022-07-23T13:23:55;0.00;;;0.00;;
15490;SDS011;7847;50.930;4.336;2022-07-23T13:26:21;0.00;;;0.00;;
15490;SDS011;7847;50.930;4.336;2022-07-23T13:28:48;0.00;;;0.00;;
15490;SDS011;7847;50.930;4.336;2022-07-23T13:31:15;0.00;;;0.00;;
15490;SDS011;7847;50.930;4.336;2022-07-23T13:33:42;0.00;;;0.00;;
15490;SDS011;7847;50.930;4.336;2022-07-23T13:36:08;0.00;;;0.00;;
15490;SDS011;7847;50.930;4.336;2022-07-23T13:38:34;0.00;;;0.00;;
15490;SDS011;7847;50.930;4.336;2022-07-23T13:41:00;0.00;;;0.00;;
15490;SDS011;7847;50.930;4.336;2022-07-23T13:43:28;0.00;;;0.00;;
15490;SDS011;7847;50.930;4.336;2022-07-23T13:45:55;0.00;;;0.00;;
15490;SDS011;7847;50.930;4.336;2022-07-23T13:48:21;0.00;;;0.00;;
15490;SDS011;7847;50.930;4.336;2022-07-23T13:50:48;0.00;;;0.00;;
15490;SDS011;7847;50.930;4.336;2022-07-23T13:53:15;0.00;;;0.00;;
15490;SDS011;7847;50.930;4.336;2022-07-23T13:55:42;0.00;;;0.00;;
15490;SDS011;7847;50.930;4.336;2022-07-23T13:58:08;0.00;;;0.00;;
15490;SDS011;7847;50.930;4.336;2022-07-23T14:00:35;0.00;;;0.00;;
15490;SDS011;7847;50.930;4.336;2022-07-23T14:03:01;0.00;;;0.00;;
15490;SDS011;7847;50.930;4.336;2022-07-23T14:05:28;0.00;;;0.00;;
15490;SDS011;7847;50.930;4.336;2022-07-23T14:07:54;0.00;;;0.00;;
15490;SDS011;7847;50.930;4.336;2022-07-23T14:10:20;0.00;;;0.00;;
15490;SDS011;7847;50.930;4.336;2022-07-23T14:12:47;0.00;;;0.00;;
15490;SDS011;7847;50.930;4.336;2022-07-23T14:15:13;0.00;;;0.00;;
15490;SDS011;7847;50.930;4.336;2022-07-23T14:17:41;0.00;;;0.00;;
15490;SDS011;7847;50.930;4.336;2022-07-23T14:20:08;0.00;;;0.00;;
15490;SDS011;7847;50.930;4.336;2022-07-23T14:22:34;0.00;;;0.00;;
15490;SDS011;7847;50.930;4.336;2022-07-23T14:25:00;0.00;;;0.00;;
15490;SDS011;7847;50.930;4.336;2022-07-23T14:27:27;0.00;;;0.00;;
15490;SDS011;7847;50.930;4.336;2022-07-23T14:29:54;0.00;;;0.00;;
15490;SDS011;7847;50.930;4.336;2022-07-23T14:32:20;0.00;;;0.00;;
15490;SDS011;7847;50.930;4.336;2022-07-23T14:34:46;0.00;;;0.00;;
15490;SDS011;7847;50.930;4.336;2022-07-23T14:37:12;0.00;;;0.00;;
15490;SDS011;7847;50.930;4.336;2022-07-23T14:39:39;0.00;;;0.00;;
15490;SDS011;7847;50.930;4.336;2022-07-23T14:42:05;0.00;;;0.00;;
15490;SDS011;7847;50.930;4.336;2022-07-23T14:44:32;0.00;;;0.00;;
15490;SDS011;7847;50.930;4.336;2022-07-23T14:46:58;0.00;;;0.00;;
15490;SDS011;7847;50.930;4.336;2022-07-23T14:49:25;0.00;;;0.00;;
15490;SDS011;7847;50.930;4.336;2022-07-23T14:51:51;0.00;;;0.00;;
15490;SDS011;7847;50.930;4.336;2022-07-23T14:54:17;0.00;;;0.00;;
15490;SDS011;7847;50.930;4.336;2022-07-23T14:56:44;0.00;;;0.00;;
15490;SDS011;7847;50.930;4.336;2022-07-23T14:59:11;0.00;;;0.00;;
15490;SDS011;7847;50.930;4.336;2022-07-23T15:01:37;0.00;;;0.00;;
15490;SDS011;7847;50.930;4.336;2022-07-23T15:04:04;0.00;;;0.00;;
15490;SDS011;7847;50.930;4.336;2022-07-23T15:06:30;0.00;;;0.00;;
15490;SDS011;7847;50.930;4.336;2022-07-23T15:08:56;0.00;;;0.00;;
15490;SDS011;7847;50.930;4.336;2022-07-23T15:11:22;0.00;;;0.00;;
15490;SDS011;7847;50.930;4.336;2022-07-23T15:13:48;0.00;;;0.00;;
15490;SDS011;7847;50.930;4.336;2022-07-23T15:16:15;0.00;;;0.00;;
15490;SDS011;7847;50.930;4.336;2022-07-23T15:18:41;0.00;;;0.00;;
15490;SDS011;7847;50.930;4.336;2022-07-23T15:21:07;0.00;;;0.00;;
15490;SDS011;7847;50.930;4.336;2022-07-23T15:23:33;0.00;;;0.00;;
15490;SDS011;7847;50.930;4.336;2022-07-23T15:26:00;0.00;;;0.00;;